Latest Weather Observations for Norah Head

IDN60901

Issued at 8:21 pm EST Friday 27 May 2016 (issued every 10 minutes, with the page automatically refreshed every 10 minutes)

About weather observations | Map of Sydney area stations | Latest observations for Sydney area | Other Formats
Station Details ID: 061366 Name: NORAH HEAD AWS Lat: -33.28 Lon: 151.58 Height: 18.8 m
Data from the previous 72 hours. | See also: Recent months at Norah Head
Date/Time
EST
Tmp

°C
App
Tmp
°C
Dew
Point
°C
Rel
Hum
%
Delta-T

°C
Wind Press
QNH
hPa
Press
MSL
hPa
Rain
since
9 am
mm
Dir
 
Spd
km/h
Gust
km/h
Spd
kts
Gust
kts
27/08:00pm 13.9 10.1 1.9 44 5.2 WNW 11 24 6 13 1006.6 1006.6 0.0
27/07:30pm 14.1 10.3 1.7 43 5.4 WNW 11 26 6 14 1006.3 1006.3 0.0
27/07:00pm 14.7 9.7 1.6 41 5.7 WNW 17 33 9 18 1005.7 1005.7 0.0
27/06:30pm 14.6 10.4 1.8 42 5.6 WNW 13 28 7 15 1005.3 1005.3 0.0
27/06:00pm 15.0 10.4 1.5 40 5.9 WNW 15 32 8 17 1004.8 1004.8 0.0
27/05:30pm 15.4 11.2 1.5 39 6.1 WNW 13 26 7 14 1004.4 1004.4 0.0
27/05:00pm 15.9 11.2 1.2 37 6.5 WNW 15 33 8 18 1003.5 1003.5 0.0
27/04:30pm 16.4 12.1 1.3 36 6.6 WNW 13 22 7 12 1003.2 1003.2 0.0
27/04:00pm 17.0 11.9 1.0 34 7.1 W 17 33 9 18 1002.8 1002.8 0.0
27/03:30pm 17.5 12.9 1.5 34 7.1 WNW 15 32 8 17 1002.5 1002.5 0.0
27/03:00pm 17.9 13.2 1.0 32 7.5 W 15 37 8 20 1001.9 1001.9 0.0
27/02:30pm 18.4 13.0 1.0 31 7.7 W 19 37 10 20 1001.7 1001.7 0.0
27/02:00pm 18.7 13.8 1.7 32 7.7 W 17 43 9 23 1001.7 1001.7 0.0
27/01:30pm 18.9 14.0 1.9 32 7.7 W 17 32 9 17 1001.7 1001.7 0.0
27/01:00pm 18.8 13.9 1.8 32 7.8 W 17 32 9 17 1001.8 1001.8 0.0
27/12:30pm 18.8 14.5 3.0 35 7.3 W 15 35 8 19 1002.0 1002.0 0.0
27/12:00pm 18.6 15.1 3.3 36 7.2 W 11 24 6 13 1002.4 1002.4 0.0
27/11:30am 18.0 14.1 3.5 38 6.8 WNW 13 24 7 13 1002.7 1002.7 0.0
27/11:00am 17.6 13.4 3.9 40 6.5 WNW 15 26 8 14 1003.1 1003.1 0.0
27/10:30am 16.8 13.0 3.8 42 6.0 WNW 13 32 7 17 1003.6 1003.6 0.0
27/10:00am 16.3 12.1 4.0 44 5.7 WNW 15 30 8 16 1003.9 1003.9 0.0
27/09:30am 15.9 12.6 4.6 47 5.3 NW 11 24 6 13 1004.1 1004.1 0.0
27/09:00am 15.4 12.2 5.3 51 4.8 WNW 11 30 6 16 1004.0 1004.0 0.6
27/08:30am 14.5 11.1 5.8 56 4.1 NW 13 28 7 15 1003.7 1003.7 0.6
27/08:00am 13.6 10.6 6.0 60 3.6 WNW 11 22 6 12 1003.6 1003.6 0.6
27/07:30am 12.5 10.2 5.9 64 3.1 WNW 7 15 4 8 1003.8 1003.8 0.6
27/07:00am 12.0 9.7 5.6 65 3.0 WNW 7 15 4 8 1003.3 1003.3 0.6
27/06:30am 11.9 9.5 5.1 63 3.1 WNW 7 17 4 9 1003.2 1003.2 0.6
27/06:00am 12.2 9.1 5.6 64 3.1 WNW 11 19 6 10 1002.8 1002.8 0.6
27/05:30am 12.1 9.4 5.5 64 3.1 WNW 9 19 5 10 1002.5 1002.5 0.6
27/05:00am 12.7 10.3 7.0 68 2.8 NW 9 19 5 10 1002.3 1002.3 0.6
27/04:30am 12.5 10.1 5.4 62 3.3 WNW 7 17 4 9 1002.5 1002.5 0.6
27/04:00am 12.7 10.4 5.6 62 3.3 WNW 7 13 4 7 1002.6 1002.6 0.6
27/03:30am 13.4 10.9 6.5 63 3.3 WNW 9 19 5 10 1002.4 1002.4 0.6
27/03:00am 13.4 11.7 7.6 68 2.9 WNW 6 13 3 7 1002.2 1002.2 0.6
27/02:30am 13.6 11.9 7.4 66 3.0 WNW 6 15 3 8 1002.4 1002.4 0.6
27/02:00am 14.2 12.7 9.0 71 2.7 NW 7 13 4 7 1002.3 1002.3 0.6
27/01:30am 14.2 13.0 10.2 77 2.1 NW 7 11 4 6 1002.1 1002.1 0.6
27/01:00am 14.2 13.1 10.6 79 1.9 WNW 7 15 4 8 1002.2 1002.2 0.6
27/12:30am 14.2 13.4 11.0 81 1.7 WNW 6 13 3 7 1002.4 1002.4 0.6
27/12:00am 14.4 13.5 11.4 82 1.6 NW 7 13 4 7 1002.3 1002.3 0.6
 
Date/Time
EST
Tmp

°C
App
Tmp
°C
Dew
Point
°C
Rel
Hum
%
Delta-T

°C
Wind Press
QNH
hPa
Press
MSL
hPa
Rain
since
9 am
mm
Dir
 
Spd
km/h
Gust
km/h
Spd
kts
Gust
kts
26/11:30pm 14.8 13.2 11.4 80 1.8 NW 11 19 6 10 1002.5 1002.5 0.6
26/11:00pm 15.2 13.6 11.6 79 1.9 NW 11 20 6 11 1002.6 1002.6 0.6
26/10:30pm 15.1 14.3 11.1 77 2.1 NNW 6 9 3 5 1002.7 1002.7 0.6
26/10:00pm 15.2 13.6 11.4 78 2.0 NNW 11 17 6 9 1002.7 1002.7 0.6
26/09:30pm 15.1 13.8 11.3 78 2.0 NNW 9 15 5 8 1003.1 1003.1 0.6
26/09:00pm 15.0 13.6 11.0 77 2.1 NNW 9 13 5 7 1003.2 1003.2 0.6
26/08:30pm 15.2 13.8 10.8 75 2.3 NNW 9 17 5 9 1003.0 1003.0 0.6
26/08:00pm 15.2 14.0 10.4 73 2.5 NW 7 11 4 6 1002.8 1002.8 0.6
26/07:30pm 16.1 15.1 11.1 72 2.7 NW 7 15 4 8 1002.6 1002.6 0.6
26/07:00pm 16.5 15.0 10.6 68 3.2 NW 9 17 5 9 1002.4 1002.4 0.6
26/06:30pm 17.0 15.1 10.4 65 3.5 NW 11 19 6 10 1002.2 1002.2 0.6
26/06:00pm 17.4 15.5 10.5 64 3.7 NW 11 22 6 12 1001.8 1001.8 0.6
26/05:30pm 17.5 14.5 10.6 64 3.7 NW 17 30 9 16 1001.4 1001.4 0.6
26/05:00pm 17.8 14.5 10.9 64 3.7 NNW 19 28 10 15 1001.1 1001.1 0.6
26/04:30pm 18.4 12.1 11.2 63 3.9 NNW 35 46 19 25 1000.5 1000.5 0.6
26/04:00pm 18.5 14.2 10.6 60 4.3 NNW 24 35 13 19 1000.7 1000.7 0.6
26/03:30pm 18.9 16.2 10.2 57 4.7 NW 15 30 8 16 1001.0 1001.0 0.6
26/03:00pm 19.0 16.5 9.8 55 4.9 NW 13 24 7 13 1001.7 1001.7 0.6
26/02:30pm 19.3 16.4 9.5 53 5.2 NW 15 30 8 16 1001.7 1001.7 0.6
26/02:00pm 19.4 17.0 9.9 54 5.1 NW 13 20 7 11 1002.3 1002.3 0.6
26/01:30pm 18.7 16.7 10.0 57 4.6 NW 11 19 6 10 1003.0 1003.0 0.6
26/01:00pm 17.4 14.9 9.6 60 4.1 NW 13 28 7 15 1003.3 1003.3 0.6
26/12:30pm 15.4 14.3 10.0 70 2.8 WNW 6 15 3 8 1004.3 1004.3 0.6
26/12:00pm 14.9 8.5 10.7 76 2.2 N 35 41 19 22 1003.2 1003.2 0.6
26/11:59am 15.1 8.8 10.9 76 2.2 N 35 41 19 22 1003.4 1003.4 0.6
26/11:30am 14.7 10.4 10.7 77 2.1 NNW 24 39 13 21 1005.5 1005.5 0.6
26/11:00am 15.0 12.0 10.6 75 2.3 NNW 17 22 9 12 1006.9 1006.9 0.2
26/10:30am 15.2 11.1 10.0 71 2.7 N 22 26 12 14 1007.3 1007.3 0.0
26/10:00am 15.0 9.2 9.4 69 2.9 N 30 33 16 18 1006.9 1006.9 0.0
26/09:30am 15.5 9.9 10.3 71 2.7 NNE 30 33 16 18 1006.9 1006.9 0.0
26/09:00am 14.0 10.4 10.4 79 1.9 NNE 20 22 11 12 1007.8 1007.8 1.8
26/08:30am 14.4 10.8 9.8 74 2.4 N 19 22 10 12 1009.0 1009.0 1.6
26/08:00am 14.3 11.3 9.1 71 2.7 N 15 17 8 9 1009.0 1009.0 1.4
26/07:30am 13.8 12.0 9.6 76 2.2 NNW 9 15 5 8 1009.7 1009.6 1.4
26/07:00am 13.9 10.2 10.3 79 1.9 N 20 28 11 15 1009.5 1009.4 1.4
26/06:30am 14.0 9.7 9.4 74 2.4 N 22 26 12 14 1009.5 1009.4 1.2
26/06:00am 13.7 10.1 8.5 71 2.6 N 17 22 9 12 1010.3 1010.2 1.2
26/05:30am 14.5 9.6 8.5 67 3.0 NNW 24 32 13 17 1010.2 1010.1 0.8
26/05:00am 14.4 10.5 9.6 73 2.5 NNW 20 26 11 14 1010.2 1010.1 0.8
26/04:30am 14.4 13.1 9.2 71 2.7 N 6 13 3 7 1010.9 1010.8 0.6
26/04:00am 13.8 12.4 7.3 65 3.2 WNW 4 7 2 4 1011.2 1011.1 0.6
26/03:30am 15.7 13.5 9.4 66 3.3 NW 11 17 6 9 1010.8 1010.7 0.0
26/03:00am 16.7 13.1 8.4 58 4.2 N 17 19 9 10 1010.3 1010.2 0.0
26/02:30am 15.7 12.9 7.0 56 4.3 N 11 15 6 8 1011.1 1011.0 0.0
26/02:00am 15.8 13.1 2.6 41 5.9 WNW 6 9 3 5 1011.5 1011.4 0.0
26/01:30am 16.0 13.8 3.4 43 5.8 WNW 4 7 2 4 1011.6 1011.5 0.0
26/01:00am 15.6 13.4 5.2 50 4.9 NW 6 9 3 5 1011.5 1011.4 0.0
26/12:30am 15.7 13.6 5.6 51 4.8 NW 6 11 3 6 1011.8 1011.7 0.0
26/12:00am 15.5 13.0 4.8 49 5.0 WNW 7 13 4 7 1012.3 1012.2 0.0
 
Date/Time
EST
Tmp

°C
App
Tmp
°C
Dew
Point
°C
Rel
Hum
%
Delta-T

°C
Wind Press
QNH
hPa
Press
MSL
hPa
Rain
since
9 am
mm
Dir
 
Spd
km/h
Gust
km/h
Spd
kts
Gust
kts
25/11:30pm 15.2 12.6 4.3 48 5.1 WNW 7 13 4 7 1013.1 1013.0 0.0
25/11:00pm 14.8 13.1 7.4 61 3.7 WNW 6 11 3 6 1013.1 1013.0 0.0
25/10:30pm 13.8 11.6 7.8 67 3.0 NNW 9 13 5 7 1013.1 1013.0 0.0
25/10:00pm 14.2 12.5 8.2 67 3.0 NNW 7 13 4 7 1013.2 1013.1 0.0
25/09:30pm 14.4 12.6 7.9 65 3.2 NW 7 13 4 7 1013.7 1013.6 0.0
25/09:00pm 14.4 12.6 7.9 65 3.2 NW 7 11 4 6 1013.9 1013.8 0.0
25/08:30pm 15.2 12.9 8.9 66 3.2 NNW 11 13 6 7 1013.8 1013.7 0.0
25/08:00pm 15.8 13.2 9.5 66 3.3 NNW 13 15 7 8 1013.6 1013.5 0.0
25/07:30pm 15.1 13.5 8.8 66 3.2 NNW 7 9 4 5 1013.7 1013.6 0.0
25/07:00pm 15.6 13.9 8.4 62 3.6 NW 7 9 4 5 1013.8 1013.7 0.0
25/06:30pm 16.3 13.8 8.3 59 4.1 NE 11 13 6 7 1013.7 1013.6 0.0
25/06:00pm 16.2 13.6 7.9 58 4.2 NE 11 13 6 7 1013.5 1013.4 0.0
25/05:30pm 15.7 13.0 7.2 57 4.2 NE 11 15 6 8 1013.5 1013.4 0.0
25/05:00pm 15.8 13.3 6.5 54 4.5 NE 9 13 5 7 1013.5 1013.4 0.0
25/04:30pm 16.7 14.3 6.8 52 4.9 E 9 11 5 6 1013.4 1013.3 0.0
25/04:00pm 16.6 14.0 6.1 50 5.1 ESE 9 11 5 6 1013.5 1013.4 0.0
25/03:30pm 16.8 14.2 6.3 50 5.1 ESE 9 11 5 6 1013.6 1013.5 0.0
25/03:00pm 17.0 14.2 5.3 46 5.6 SSE 9 11 5 6 1013.6 1013.5 0.0
25/02:30pm 17.7 14.4 6.6 48 5.5 SSE 13 19 7 10 1013.7 1013.6 0.0
25/02:00pm 17.7 14.9 5.3 44 6.0 SSE 9 13 5 7 1014.2 1014.1 0.0
25/01:30pm 18.4 15.8 6.3 45 6.0 SSE 9 13 5 7 1014.5 1014.4 0.0
25/01:00pm 18.7 16.1 6.2 44 6.2 S 9 13 5 7 1014.7 1014.6 0.0
25/12:30pm 18.0 15.7 5.9 45 5.9 S 7 11 4 6 1015.4 1015.3 0.0
25/12:00pm 17.9 15.5 4.5 41 6.4 S 6 9 3 5 1015.5 1015.4 0.0
25/11:30am 18.3 16.5 7.1 48 5.6 WSW 6 13 3 7 1016.9 1016.8 0.0
25/11:00am 17.9 15.4 3.8 39 6.6 W 6 17 3 9 1017.4 1017.3 0.0
25/10:30am 17.3 15.0 5.9 47 5.6 WNW 7 13 4 7 1017.7 1017.6 0.0
25/10:00am 16.7 14.7 6.2 50 5.1 WNW 6 9 3 5 1018.0 1017.9 0.0
25/09:30am 15.4 12.8 6.2 54 4.4 WNW 9 20 5 11 1018.0 1017.9 0.0
25/09:00am 14.3 12.0 5.9 57 4.0 NW 7 15 4 8 1018.0 1017.9 0.0
25/08:30am 13.1 9.8 4.8 57 3.8 WNW 11 17 6 9 1018.0 1017.9 0.0
25/08:00am 12.2 9.5 5.8 65 3.0 WNW 9 19 5 10 1017.7 1017.6 0.0
25/07:30am 11.1 8.3 5.2 67 2.7 WNW 9 15 5 8 1017.3 1017.2 0.0
25/07:00am 10.4 7.5 4.8 68 2.5 WNW 9 17 5 9 1017.2 1017.1 0.0
25/06:30am 10.0 7.1 4.8 70 2.3 WNW 9 13 5 7 1017.1 1017.0 0.0
25/06:00am 10.0 7.5 4.8 70 2.3 WNW 7 13 4 7 1016.7 1016.6 0.0
25/05:30am 10.1 7.6 4.7 69 2.4 WNW 7 13 4 7 1016.6 1016.5 0.0
25/05:00am 10.5 8.1 5.1 69 2.4 WNW 7 11 4 6 1016.7 1016.6 0.0
25/04:30am 10.7 8.2 4.6 66 2.7 WNW 7 11 4 6 1016.6 1016.5 0.0
25/04:00am 11.2 8.0 4.9 65 2.9 WNW 11 17 6 9 1016.4 1016.3 0.0
25/03:30am 11.4 8.6 5.1 65 2.9 WNW 9 15 5 8 1016.3 1016.2 0.0
25/03:00am 11.5 8.6 4.5 62 3.2 WNW 9 15 5 8 1016.5 1016.4 0.0
25/02:30am 12.0 8.7 4.7 61 3.3 W 11 15 6 8 1016.8 1016.7 0.0
25/02:00am 12.1 9.5 4.3 59 3.5 W 7 9 4 5 1016.9 1016.8 0.0
25/01:30am 12.2 9.8 4.2 58 3.6 W 6 9 3 5 1017.1 1017.0 0.0
25/01:00am 12.2 9.5 3.9 57 3.7 W 7 9 4 5 1017.1 1017.0 0.0
25/12:30am 12.7 9.7 4.2 56 3.9 W 9 13 5 7 1017.2 1017.1 0.0
25/12:00am 13.0 10.1 4.4 56 3.9 W 9 15 5 8 1017.4 1017.3 0.0
 
Date/Time
EST
Tmp

°C
App
Tmp
°C
Dew
Point
°C
Rel
Hum
%
Delta-T

°C
Wind Press
QNH
hPa
Press
MSL
hPa
Rain
since
9 am
mm
Dir
 
Spd
km/h
Gust
km/h
Spd
kts
Gust
kts
24/11:30pm 13.3 10.8 4.5 55 4.0 WNW 7 15 4 8 1017.5 1017.4 0.0
24/11:00pm 13.5 10.9 4.4 54 4.2 WNW 7 15 4 8 1017.5 1017.4 0.0
24/10:30pm 14.0 11.4 4.3 52 4.5 WNW 7 17 4 9 1017.4 1017.3 0.0
24/10:00pm 14.2 11.2 4.2 51 4.6 WNW 9 17 5 9 1017.4 1017.3 0.0
24/09:30pm 14.4 11.4 4.1 50 4.7 W 9 15 5 8 1017.5 1017.4 0.0
24/09:00pm 14.6 11.9 3.7 48 5.0 W 7 15 4 8 1017.3 1017.2 0.0
24/08:30pm 14.8 11.5 2.7 44 5.4 W 9 17 5 9 1016.8 1016.7 0.0

Latest Capital City Observations: Canberra | Sydney | Melbourne | Brisbane | Adelaide | Perth | Hobart | Darwin

Other Formats:

Comma delimited format used in spreadsheet applications
http://www.bom.gov.au/fwo/IDN60901/IDN60901.95770.axf

JavaScript Object Notation format (JSON) in row-major order
http://www.bom.gov.au/fwo/IDN60901/IDN60901.95770.json